Latest Weather Observations for North Head

IDN60901

Issued at 7:05 am EST Wednesday 3 September 2014 (issued every 10 minutes, with the page automatically refreshed every 10 minutes)

About weather observations | Map of Sydney area stations | Latest observations for Sydney area | Other Formats
Station Details ID: 066197 Name: NORTH HEAD Lat: -33.82 Lon: 151.30 Height: 90.0 m
Data from the previous 72 hours. | See also: Recent months for locations in New South Wales
Date/Time
EST
Tmp

°C
App
Tmp
°C
Dew
Point
°C
Rel
Hum
%
Delta-T

°C
Wind Press
QNH
hPa
Press
MSL
hPa
Rain
since
9 am
mm
Dir
 
Spd
km/h
Gust
km/h
Spd
kts
Gust
kts
03/07:00am - - - - - WSW 26 41 14 22 - - -
03/06:35am - - - - - WSW 28 56 15 30 - - -
03/06:30am - - - - - WSW 24 44 13 24 - - -
03/06:00am - - - - - SW 35 56 19 30 - - -
03/05:30am - - - - - SW 30 52 16 28 - - -
03/05:06am - - - - - SW 33 54 18 29 - - -
03/05:00am - - - - - SW 35 52 19 28 - - -
03/04:30am - - - - - SW 33 56 18 30 - - -
03/04:00am - - - - - SW 32 61 17 33 - - -
03/03:32am - - - - - SW 28 56 15 30 - - -
03/03:30am - - - - - SW 26 43 14 23 - - -
03/03:00am - - - - - WSW 28 43 15 23 - - -
03/02:30am - - - - - WSW 26 39 14 21 - - -
03/02:00am - - - - - WSW 30 48 16 26 - - -
03/01:44am - - - - - WSW 33 59 18 32 - - -
03/01:30am - - - - - WSW 32 50 17 27 - - -
03/01:00am - - - - - WSW 30 46 16 25 - - -
03/12:30am - - - - - WSW 33 54 18 29 - - -
03/12:02am - - - - - W 33 56 18 30 - - -
03/12:00am - - - - - WSW 33 48 18 26 - - -
 
Date/Time
EST
Tmp

°C
App
Tmp
°C
Dew
Point
°C
Rel
Hum
%
Delta-T

°C
Wind Press
QNH
hPa
Press
MSL
hPa
Rain
since
9 am
mm
Dir
 
Spd
km/h
Gust
km/h
Spd
kts
Gust
kts
02/11:45pm - - - - - WSW 32 52 17 28 - - -
02/11:30pm - - - - - WSW 35 52 19 28 - - -
02/11:00pm - - - - - WSW 35 54 19 29 - - -
02/10:30pm - - - - - WSW 35 59 19 32 - - -
02/10:02pm - - - - - WSW 35 56 19 30 - - -
02/10:00pm - - - - - WSW 35 54 19 29 - - -
02/09:30pm - - - - - WSW 30 54 16 29 - - -
02/09:04pm - - - - - WSW 33 54 18 29 - - -
02/09:00pm - - - - - WSW 32 50 17 27 - - -
02/08:30pm - - - - - SW 32 54 17 29 - - -
02/08:23pm - - - - - SW 30 54 16 29 - - -
02/08:00pm - - - - - SW 24 37 13 20 - - -
02/07:30pm - - - - - SW 20 30 11 16 - - -
02/07:00pm - - - - - SSW 17 30 9 16 - - -
02/06:30pm - - - - - SW 20 33 11 18 - - -
02/06:00pm - - - - - WSW 19 35 10 19 - - -
02/05:30pm - - - - - WSW 22 33 12 18 - - -
02/05:00pm - - - - - WSW 24 37 13 20 - - -
02/04:30pm - - - - - W 11 17 6 9 - - -
02/04:00pm - - - - - SW 19 28 10 15 - - -
02/03:30pm - - - - - SSW 15 22 8 12 - - -
02/03:00pm - - - - - S 19 30 10 16 - - -
02/02:30pm - - - - - SSW 19 30 10 16 - - -
02/02:00pm - - - - - SSW 19 30 10 16 - - -
02/01:30pm - - - - - S 17 30 9 16 - - -
02/01:00pm - - - - - SSW 9 17 5 9 - - -
02/12:30pm - - - - - SW 22 33 12 18 - - -
02/12:00pm - - - - - SW 7 19 4 10 - - -
02/11:30am - - - - - SW 13 22 7 12 - - -
02/11:00am - - - - - SW 11 24 6 13 - - -
02/10:30am - - - - - SW 9 13 5 7 - - -
02/10:00am - - - - - SSW 7 15 4 8 - - -
02/09:30am - - - - - NW 4 7 2 4 - - -
02/09:00am - - - - - WNW 7 13 4 7 - - -
02/08:30am - - - - - WNW 7 11 4 6 - - -
02/08:00am - - - - - W 13 19 7 10 - - -
02/07:30am - - - - - WNW 15 24 8 13 - - -
02/07:00am - - - - - W 13 26 7 14 - - -
02/06:30am - - - - - W 6 13 3 7 - - -
02/06:00am - - - - - W 15 22 8 12 - - -
02/05:30am - - - - - W 19 32 10 17 - - -
02/05:00am - - - - - W 20 28 11 15 - - -
02/04:30am - - - - - WSW 19 30 10 16 - - -
02/04:00am - - - - - W 9 13 5 7 - - -
02/03:30am - - - - - NW 11 20 6 11 - - -
02/03:00am - - - - - N 7 9 4 5 - - -
02/02:30am - - - - - N 9 13 5 7 - - -
02/02:00am - - - - - N 13 19 7 10 - - -
02/01:30am - - - - - N 15 20 8 11 - - -
02/01:00am - - - - - N 15 20 8 11 - - -
02/12:30am - - - - - N 15 20 8 11 - - -
02/12:00am - - - - - N 11 17 6 9 - - -
 
Date/Time
EST
Tmp

°C
App
Tmp
°C
Dew
Point
°C
Rel
Hum
%
Delta-T

°C
Wind Press
QNH
hPa
Press
MSL
hPa
Rain
since
9 am
mm
Dir
 
Spd
km/h
Gust
km/h
Spd
kts
Gust
kts
01/11:30pm - - - - - N 11 19 6 10 - - -
01/11:00pm - - - - - N 11 15 6 8 - - -
01/10:30pm - - - - - NW 11 15 6 8 - - -
01/10:00pm - - - - - NW 13 17 7 9 - - -
01/09:30pm - - - - - NW 15 20 8 11 - - -
01/09:00pm - - - - - NW 13 20 7 11 - - -
01/08:30pm - - - - - NW 15 22 8 12 - - -
01/08:00pm - - - - - NW 11 17 6 9 - - -
01/07:30pm - - - - - NW 11 17 6 9 - - -
01/07:00pm - - - - - NNW 9 13 5 7 - - -
01/06:30pm - - - - - N 11 15 6 8 - - -
01/06:00pm - - - - - NNE 11 15 6 8 - - -
01/05:30pm - - - - - NNE 13 19 7 10 - - -
01/05:00pm - - - - - NNE 11 15 6 8 - - -
01/04:30pm - - - - - NNE 13 20 7 11 - - -
01/04:00pm - - - - - NNE 13 20 7 11 - - -
01/03:30pm - - - - - NNE 13 22 7 12 - - -
01/03:00pm - - - - - NE 11 19 6 10 - - -
01/02:30pm - - - - - NE 13 22 7 12 - - -
01/02:00pm - - - - - ENE 9 17 5 9 - - -
01/01:30pm - - - - - NE 11 15 6 8 - - -
01/01:00pm - - - - - NE 11 15 6 8 - - -
01/12:30pm - - - - - NNE 7 11 4 6 - - -
01/12:00pm - - - - - NNE 7 9 4 5 - - -
01/11:30am - - - - - N 7 9 4 5 - - -
01/11:00am - - - - - NNE 6 9 3 5 - - -
01/10:30am - - - - - NE 6 9 3 5 - - -
01/10:00am - - - - - NNW 4 9 2 5 - - -
01/09:30am - - - - - NW 6 9 3 5 - - -
01/09:00am - - - - - W 9 11 5 6 - - -
01/08:30am - - - - - W 13 19 7 10 - - -
01/08:00am - - - - - WNW 7 11 4 6 - - -
01/07:30am - - - - - NW 7 9 4 5 - - -
01/07:00am - - - - - WNW 9 13 5 7 - - -
01/06:30am - - - - - W 13 15 7 8 - - -
01/06:00am - - - - - WNW 11 11 6 6 - - -
01/05:30am - - - - - NW 13 17 7 9 - - -
01/05:00am - - - - - WNW 11 13 6 7 - - -
01/04:30am - - - - - NW 9 11 5 6 - - -
01/04:00am - - - - - NW 9 11 5 6 - - -
01/03:30am - - - - - NNW 9 9 5 5 - - -
01/03:00am - - - - - NNW 9 11 5 6 - - -
01/02:30am - - - - - NNW 7 9 4 5 - - -
01/02:00am - - - - - NW 7 9 4 5 - - -
01/01:30am - - - - - NW 7 7 4 4 - - -
01/01:00am - - - - - WNW 7 7 4 4 - - -
01/12:30am - - - - - W 7 9 4 5 - - -
01/12:00am - - - - - W 9 9 5 5 - - -
 
Date/Time
EST
Tmp

°C
App
Tmp
°C
Dew
Point
°C
Rel
Hum
%
Delta-T

°C
Wind Press
QNH
hPa
Press
MSL
hPa
Rain
since
9 am
mm
Dir
 
Spd
km/h
Gust
km/h
Spd
kts
Gust
kts
31/11:30pm - - - - - W 7 9 4 5 - - -
31/11:00pm - - - - - NW 7 7 4 4 - - -
31/10:30pm - - - - - WNW 7 7 4 4 - - -
31/10:00pm - - - - - NNE 6 7 3 4 - - -
31/09:30pm - - - - - ENE 6 7 3 4 - - -
31/09:00pm - - - - - ENE 6 7 3 4 - - -
31/08:30pm - - - - - ENE 6 7 3 4 - - -
31/08:00pm - - - - - ENE 6 7 3 4 - - -
31/07:30pm - - - - - E 7 13 4 7 - - -
31/07:00pm - - - - - E 7 13 4 7 - - -
31/06:30pm - - - - - E 9 13 5 7 - - -
31/06:00pm - - - - - ESE 11 15 6 8 - - -
31/05:30pm - - - - - ESE 9 13 5 7 - - -
31/05:00pm - - - - - ESE 9 15 5 8 - - -
31/04:30pm - - - - - ESE 9 13 5 7 - - -
31/04:00pm - - - - - SE 11 15 6 8 - - -
31/03:30pm - - - - - SE 11 17 6 9 - - -
31/03:00pm - - - - - SSE 13 17 7 9 - - -
31/02:30pm - - - - - SE 13 17 7 9 - - -
31/02:00pm - - - - - SE 13 17 7 9 - - -
31/01:30pm - - - - - SE 13 17 7 9 - - -
31/01:00pm - - - - - SSE 13 17 7 9 - - -
31/12:30pm - - - - - SSE 13 19 7 10 - - -
31/12:00pm - - - - - S 7 13 4 7 - - -
31/11:30am - - - - - SW 9 15 5 8 - - -
31/11:00am - - - - - WSW 11 17 6 9 - - -
31/10:30am - - - - - WSW 11 20 6 11 - - -
31/10:00am - - - - - WSW 11 17 6 9 - - -
31/09:30am - - - - - WSW 11 19 6 10 - - -
31/09:00am - - - - - WSW 13 19 7 10 - - -
31/08:30am - - - - - W 13 19 7 10 - - -
31/08:00am - - - - - W 13 24 7 13 - - -
31/07:30am - - - - - W 13 20 7 11 - - -

Latest Capital City Observations: Canberra | Sydney | Melbourne | Brisbane | Adelaide | Perth | Hobart | Darwin

Other Formats:

Comma delimited format used in spreadsheet applications
http://www.bom.gov.au/fwo/IDN60901/IDN60901.95768.axf

JavaScript Object Notation format (JSON) in row-major order
http://www.bom.gov.au/fwo/IDN60901/IDN60901.95768.json